createdAt,value
2022-12-27T00:00:17.331Z,1.20
2022-12-27T00:03:24.358Z,1.20
2022-12-27T00:06:30.881Z,1.30
2022-12-27T00:09:36.068Z,1.10
2022-12-27T00:12:41.221Z,1.40
2022-12-27T00:15:46.280Z,1.27
2022-12-27T00:18:53.543Z,1.23
2022-12-27T00:21:58.583Z,1.23
2022-12-27T00:25:03.721Z,1.50
2022-12-27T00:28:08.805Z,1.17
2022-12-27T00:31:14.336Z,1.40
2022-12-27T00:34:20.993Z,1.40
2022-12-27T00:37:26.149Z,1.50
2022-12-27T00:40:31.269Z,1.60
2022-12-27T00:43:36.961Z,1.70
2022-12-27T00:46:42.465Z,1.53
2022-12-27T00:49:49.030Z,1.47
2022-12-27T00:52:54.473Z,1.60
2022-12-27T00:56:00.475Z,1.90
2022-12-27T00:59:06.523Z,1.57
2022-12-27T01:02:12.630Z,1.53
2022-12-27T01:05:19.935Z,1.70
2022-12-27T01:08:25.056Z,1.80
2022-12-27T01:11:30.810Z,1.60
2022-12-27T01:14:36.252Z,2.00
2022-12-27T01:17:41.584Z,1.57
2022-12-27T01:20:48.408Z,1.73
2022-12-27T01:23:53.654Z,1.53
2022-12-27T01:26:58.753Z,1.80
2022-12-27T01:30:04.261Z,1.77
2022-12-27T01:33:09.415Z,1.90
2022-12-27T01:36:18.406Z,1.70
2022-12-27T01:39:23.676Z,1.90
2022-12-27T01:42:47.062Z,1.80
2022-12-27T01:45:52.261Z,1.90
2022-12-27T01:48:57.626Z,1.73
2022-12-27T01:52:05.076Z,1.60
2022-12-27T01:55:16.590Z,1.80
2022-12-27T01:58:32.195Z,1.77
2022-12-27T02:01:40.995Z,1.40
2022-12-27T02:04:49.159Z,1.77
2022-12-27T02:08:07.873Z,1.67
2022-12-27T02:11:13.697Z,1.77
2022-12-27T02:14:26.086Z,1.70
2022-12-27T02:17:34.649Z,1.70
2022-12-27T02:20:49.400Z,1.30
2022-12-27T02:24:09.170Z,1.30
2022-12-27T02:27:27.678Z,1.50
2022-12-27T02:30:36.105Z,1.30
2022-12-27T02:33:47.202Z,1.20
2022-12-27T02:36:54.680Z,1.10
2022-12-27T02:40:21.762Z,1.00
2022-12-27T02:43:44.893Z,1.17
2022-12-27T02:47:10.158Z,1.00
2022-12-27T02:50:34.506Z,0.80
2022-12-27T02:53:47.406Z,0.77
2022-12-27T02:57:09.706Z,0.80
2022-12-27T03:00:35.132Z,0.90
2022-12-27T03:03:53.765Z,0.90
2022-12-27T03:07:12.152Z,0.90
2022-12-27T03:10:41.653Z,0.90
2022-12-27T03:14:08.223Z,0.70
2022-12-27T03:17:24.862Z,0.90
2022-12-27T03:20:49.436Z,0.90
2022-12-27T03:24:14.892Z,0.80
2022-12-27T03:27:27.687Z,0.70
2022-12-27T03:30:50.490Z,0.70
2022-12-27T03:34:19.985Z,0.90
2022-12-27T03:37:47.219Z,0.70
2022-12-27T03:41:11.795Z,0.83
2022-12-27T03:44:26.537Z,0.80
2022-12-27T03:47:34.889Z,0.80
2022-12-27T03:50:44.892Z,0.90
2022-12-27T03:53:54.926Z,1.00
2022-12-27T03:57:02.442Z,0.90
2022-12-27T04:00:09.119Z,1.03
2022-12-27T04:03:21.553Z,0.80
2022-12-27T04:06:26.864Z,0.80
2022-12-27T04:09:51.242Z,1.20
2022-12-27T04:13:13.883Z,1.20
2022-12-27T04:16:36.760Z,1.03
2022-12-27T04:19:59.562Z,0.87
2022-12-27T04:23:22.359Z,0.97
2022-12-27T04:26:46.346Z,0.80
2022-12-27T04:30:09.217Z,1.10
2022-12-27T04:33:31.650Z,0.97
2022-12-27T04:36:36.791Z,1.00
2022-12-27T04:39:42.071Z,1.53
2022-12-27T04:43:05.901Z,1.00
2022-12-27T04:46:40.704Z,1.03
2022-12-27T04:50:03.875Z,1.17
2022-12-27T04:53:29.724Z,0.90
2022-12-27T04:56:34.979Z,1.37
2022-12-27T04:59:58.941Z,1.27
2022-12-27T05:03:05.976Z,1.20
2022-12-27T05:06:13.202Z,1.30
2022-12-27T05:09:36.266Z,1.10
2022-12-27T05:13:01.448Z,1.20
2022-12-27T05:16:08.831Z,1.07
2022-12-27T05:19:15.669Z,1.27
2022-12-27T05:22:37.642Z,1.50
2022-12-27T05:25:43.715Z,1.30
2022-12-27T05:28:49.545Z,1.37
2022-12-27T05:31:56.837Z,1.10
2022-12-27T05:35:02.207Z,1.30
2022-12-27T05:38:07.981Z,1.83
2022-12-27T05:41:13.339Z,1.30
2022-12-27T05:44:18.473Z,1.20
2022-12-27T05:47:25.114Z,1.67
2022-12-27T05:50:30.565Z,1.73
2022-12-27T05:53:48.979Z,1.50
2022-12-27T05:56:54.182Z,1.43
2022-12-27T05:59:59.492Z,1.20
2022-12-27T06:03:06.581Z,1.47
2022-12-27T06:06:13.725Z,1.80
2022-12-27T06:09:18.799Z,1.30
2022-12-27T06:12:24.131Z,1.30
2022-12-27T06:15:29.567Z,1.30
2022-12-27T06:18:37.752Z,1.37
2022-12-27T06:21:42.828Z,1.30
2022-12-27T06:24:48.111Z,1.50
2022-12-27T06:27:53.727Z,1.70
2022-12-27T06:31:00.595Z,1.20
2022-12-27T06:34:07.297Z,1.73
2022-12-27T06:37:13.969Z,1.87
2022-12-27T06:40:22.019Z,1.30
2022-12-27T06:43:27.242Z,1.37
2022-12-27T06:46:32.296Z,1.53
2022-12-27T06:49:41.502Z,1.97
2022-12-27T06:52:46.777Z,1.30
2022-12-27T06:55:51.928Z,1.30
2022-12-27T06:58:56.968Z,1.27
2022-12-27T07:02:02.403Z,1.10
2022-12-27T07:05:10.522Z,1.73
2022-12-27T07:08:16.869Z,1.80
2022-12-27T07:11:23.190Z,1.30
2022-12-27T07:14:30.040Z,1.23
2022-12-27T07:17:37.053Z,1.33
2022-12-27T07:20:43.799Z,1.27
2022-12-27T07:23:49.021Z,1.40
2022-12-27T07:26:54.242Z,1.77
2022-12-27T07:29:59.726Z,1.20
2022-12-27T07:33:05.204Z,1.33
2022-12-27T07:36:15.367Z,1.40
2022-12-27T07:39:20.677Z,1.50
2022-12-27T07:42:25.754Z,1.20
2022-12-27T07:45:32.767Z,1.43
2022-12-27T07:48:38.354Z,1.23
2022-12-27T07:51:45.030Z,1.30
2022-12-27T07:54:50.378Z,1.47
2022-12-27T07:57:55.582Z,1.43
2022-12-27T08:01:00.728Z,1.10
2022-12-27T08:04:06.183Z,1.30
2022-12-27T08:07:15.630Z,1.27
2022-12-27T08:10:20.949Z,1.60
2022-12-27T08:13:26.926Z,1.60
2022-12-27T08:16:32.245Z,1.93
2022-12-27T08:19:37.492Z,1.43
2022-12-27T08:22:44.061Z,1.60
2022-12-27T08:25:49.400Z,1.40
2022-12-27T08:28:54.664Z,1.50
2022-12-27T08:32:00.036Z,2.03
2022-12-27T08:35:33.455Z,1.63
2022-12-27T08:38:32.073Z,1.80
2022-12-27T08:41:37.252Z,2.00
2022-12-27T08:44:44.220Z,1.80
2022-12-27T08:47:49.320Z,1.57
2022-12-27T08:50:54.434Z,1.67
2022-12-27T08:54:01.650Z,1.57
2022-12-27T08:57:07.535Z,1.73
2022-12-27T09:00:16.124Z,1.80
2022-12-27T09:03:22.365Z,1.70
2022-12-27T09:06:28.054Z,1.87
2022-12-27T09:09:34.903Z,1.67
2022-12-27T09:12:40.042Z,1.73
2022-12-27T09:15:46.043Z,1.70
2022-12-27T09:18:53.074Z,1.93
2022-12-27T09:21:58.244Z,2.00
2022-12-27T09:25:05.367Z,1.93
2022-12-27T09:28:10.620Z,2.30
2022-12-27T09:31:17.416Z,1.77
2022-12-27T09:34:23.222Z,2.03
2022-12-27T09:37:28.403Z,1.80
2022-12-27T09:40:35.034Z,1.60
2022-12-27T09:43:43.427Z,1.83
2022-12-27T09:46:53.259Z,1.83
2022-12-27T09:50:02.361Z,2.40
2022-12-27T09:53:12.216Z,1.73
2022-12-27T09:56:22.682Z,1.77
2022-12-27T09:59:30.809Z,1.93
2022-12-27T10:02:36.786Z,2.00
2022-12-27T10:05:44.639Z,1.90
2022-12-27T10:08:52.672Z,2.20
2022-12-27T10:12:05.113Z,1.90
2022-12-27T10:15:20.746Z,2.13
2022-12-27T10:18:35.110Z,1.97
2022-12-27T10:21:50.632Z,2.00
2022-12-27T10:24:58.831Z,1.97
2022-12-27T10:28:16.009Z,2.10
2022-12-27T10:31:23.744Z,2.00
2022-12-27T10:34:29.162Z,1.83
2022-12-27T10:37:35.093Z,2.13
2022-12-27T10:40:44.666Z,2.77
2022-12-27T10:43:54.155Z,1.90
2022-12-27T10:46:59.650Z,1.80
2022-12-27T10:50:11.525Z,2.20
2022-12-27T10:53:36.336Z,1.90
2022-12-27T10:56:44.470Z,2.23
2022-12-27T11:00:17.259Z,1.93
2022-12-27T11:03:23.341Z,2.10
2022-12-27T11:06:28.941Z,2.13
2022-12-27T11:09:35.690Z,1.80
2022-12-27T11:12:41.679Z,2.03
2022-12-27T11:15:59.036Z,2.03
2022-12-27T11:19:05.593Z,2.60
2022-12-27T11:22:12.938Z,1.70
2022-12-27T11:25:18.537Z,2.13
2022-12-27T11:28:33.452Z,1.70
2022-12-27T11:31:41.997Z,2.33
2022-12-27T11:34:49.364Z,2.40
2022-12-27T11:37:55.082Z,2.40
2022-12-27T11:41:03.300Z,2.03
2022-12-27T11:44:18.083Z,1.60
2022-12-27T11:47:33.190Z,1.93
2022-12-27T11:50:51.358Z,2.03
2022-12-27T11:54:23.651Z,2.10
2022-12-27T11:57:39.185Z,2.20
2022-12-27T12:00:52.848Z,2.47
2022-12-27T12:04:18.009Z,2.10
2022-12-27T12:07:31.810Z,2.50
2022-12-27T12:10:45.257Z,2.10
2022-12-27T12:14:35.914Z,2.57
2022-12-27T12:18:00.504Z,1.87
2022-12-27T12:21:31.160Z,2.57
2022-12-27T12:24:53.263Z,1.90
2022-12-27T12:28:57.011Z,2.73
2022-12-27T12:32:19.120Z,2.67
2022-12-27T12:35:40.022Z,2.20
2022-12-27T12:38:51.464Z,1.63
2022-12-27T12:42:11.191Z,1.70
2022-12-27T12:45:33.502Z,1.80
2022-12-27T12:48:59.589Z,2.47
2022-12-27T12:52:23.462Z,1.90
2022-12-27T12:55:41.520Z,2.00
2022-12-27T12:58:54.955Z,2.37
2022-12-27T13:02:10.067Z,2.10
2022-12-27T13:05:20.259Z,2.60
2022-12-27T13:08:29.531Z,1.90
2022-12-27T13:11:47.860Z,1.90
2022-12-27T13:15:15.267Z,2.00
2022-12-27T13:18:30.110Z,1.73
2022-12-27T13:21:52.520Z,1.73
2022-12-27T13:25:11.564Z,1.70
2022-12-27T13:28:31.636Z,2.37
2022-12-27T13:31:43.042Z,1.90
2022-12-27T13:34:58.685Z,2.13
2022-12-27T13:38:14.869Z,1.93
2022-12-27T13:41:34.114Z,1.63
2022-12-27T13:44:50.120Z,1.77
2022-12-27T13:48:06.817Z,2.20
2022-12-27T13:51:24.034Z,1.90
2022-12-27T13:54:46.843Z,1.73
2022-12-27T13:58:20.563Z,1.40
2022-12-27T14:01:51.566Z,1.63
2022-12-27T14:05:28.261Z,1.60
2022-12-27T14:08:51.470Z,2.30
2022-12-27T14:12:10.052Z,1.80
2022-12-27T14:15:18.611Z,1.50
2022-12-27T14:18:44.387Z,1.73
2022-12-27T14:22:11.246Z,1.60
2022-12-27T14:25:58.992Z,1.80
2022-12-27T14:29:41.177Z,1.53
2022-12-27T14:33:32.056Z,1.90
2022-12-27T14:37:18.007Z,1.60
2022-12-27T14:40:55.241Z,1.60
2022-12-27T14:44:29.646Z,1.93
2022-12-27T14:48:14.728Z,1.57
2022-12-27T14:52:00.060Z,1.83
2022-12-27T14:55:26.608Z,1.70
2022-12-27T14:58:53.709Z,1.53
2022-12-27T15:02:07.463Z,2.07
2022-12-27T15:05:35.984Z,1.87
2022-12-27T15:08:51.912Z,1.67
2022-12-27T15:12:11.728Z,1.87
2022-12-27T15:15:31.055Z,1.40
2022-12-27T15:18:45.361Z,2.20
2022-12-27T15:21:57.791Z,1.47
2022-12-27T15:25:08.617Z,1.40
2022-12-27T15:28:20.282Z,1.20
2022-12-27T15:31:32.658Z,1.70
2022-12-27T15:34:54.791Z,2.20
2022-12-27T15:38:13.213Z,1.63
2022-12-27T15:41:36.199Z,2.03
2022-12-27T15:44:50.419Z,2.13
2022-12-27T15:48:11.422Z,1.90
2022-12-27T15:51:25.085Z,2.00
2022-12-27T15:54:51.872Z,1.70
2022-12-27T15:58:15.471Z,1.30
2022-12-27T16:01:30.252Z,1.33
2022-12-27T16:04:48.170Z,1.23
2022-12-27T16:07:54.746Z,1.40
2022-12-27T16:11:01.040Z,1.20
2022-12-27T16:14:24.822Z,1.23
2022-12-27T16:17:37.919Z,1.10
2022-12-27T16:20:43.745Z,1.37
2022-12-27T16:23:55.666Z,1.33
2022-12-27T16:27:02.902Z,1.00
2022-12-27T16:30:12.485Z,1.20
2022-12-27T16:33:39.433Z,1.20
2022-12-27T16:36:48.715Z,1.60
2022-12-27T16:40:24.653Z,1.00
2022-12-27T16:43:52.582Z,1.20
2022-12-27T16:47:08.201Z,1.60
2022-12-27T16:50:59.044Z,1.10
2022-12-27T16:54:23.281Z,1.40
2022-12-27T16:57:43.579Z,1.33
2022-12-27T17:00:50.517Z,1.90
2022-12-27T17:03:57.159Z,3.90
2022-12-27T17:07:03.775Z,5.70
2022-12-27T17:10:44.354Z,7.17
2022-12-27T17:13:52.310Z,7.80
2022-12-27T17:17:02.944Z,2.07
2022-12-27T17:20:18.180Z,1.40
2022-12-27T17:23:25.794Z,1.10
2022-12-27T17:26:49.194Z,1.03
2022-12-27T17:30:05.758Z,1.10
2022-12-27T17:33:35.353Z,1.13
2022-12-27T17:36:52.232Z,1.00
2022-12-27T17:40:12.103Z,1.20
2022-12-27T17:43:45.121Z,0.90
2022-12-27T17:46:56.609Z,1.20
2022-12-27T17:50:04.530Z,0.90
2022-12-27T17:53:42.180Z,1.00
2022-12-27T17:57:08.220Z,1.10
2022-12-27T18:00:26.737Z,1.00
2022-12-27T18:03:37.612Z,1.20
2022-12-27T18:06:43.138Z,1.30
2022-12-27T18:09:55.603Z,1.10
2022-12-27T18:13:04.718Z,1.20
2022-12-27T18:16:17.310Z,1.63
2022-12-27T18:19:22.512Z,1.23
2022-12-27T18:22:27.882Z,0.93
2022-12-27T18:25:34.356Z,0.97
2022-12-27T18:28:42.326Z,0.87
2022-12-27T18:31:50.347Z,1.17
2022-12-27T18:34:58.067Z,0.93
2022-12-27T18:38:04.278Z,1.40
2022-12-27T18:41:11.452Z,1.10
2022-12-27T18:44:26.861Z,1.20
2022-12-27T18:47:33.808Z,1.20
2022-12-27T18:50:39.674Z,1.13
2022-12-27T18:53:46.145Z,1.30
2022-12-27T18:56:54.623Z,1.70
2022-12-27T19:00:18.081Z,1.20
2022-12-27T19:03:25.411Z,0.90
2022-12-27T19:06:33.602Z,1.67
2022-12-27T19:09:40.917Z,1.10
2022-12-27T19:12:46.781Z,1.00
2022-12-27T19:15:54.658Z,1.10
2022-12-27T19:19:02.989Z,1.03
2022-12-27T19:22:36.611Z,1.37
2022-12-27T19:25:42.336Z,1.10
2022-12-27T19:28:48.377Z,1.10
2022-12-27T19:31:57.710Z,1.00
2022-12-27T19:35:04.899Z,1.60
2022-12-27T19:38:18.688Z,1.60
2022-12-27T19:41:23.759Z,1.57
2022-12-27T19:44:28.935Z,1.00
2022-12-27T19:47:39.882Z,1.20
2022-12-27T19:50:48.235Z,1.20
2022-12-27T19:53:57.900Z,1.00
2022-12-27T19:57:03.111Z,1.10
2022-12-27T20:00:16.046Z,0.90
2022-12-27T20:03:23.359Z,0.80
2022-12-27T20:06:30.693Z,1.00
2022-12-27T20:09:35.782Z,0.90
2022-12-27T20:12:41.691Z,1.13
2022-12-27T20:15:47.092Z,0.93
2022-12-27T20:18:53.751Z,0.97
2022-12-27T20:22:01.063Z,0.80
2022-12-27T20:25:07.013Z,0.77
2022-12-27T20:28:15.815Z,1.03
2022-12-27T20:31:22.209Z,1.20
2022-12-27T20:34:28.964Z,0.87
2022-12-27T20:37:34.198Z,0.93
2022-12-27T20:40:40.591Z,1.00
2022-12-27T20:43:45.899Z,1.10
2022-12-27T20:46:51.302Z,1.23
2022-12-27T20:49:58.670Z,0.80
2022-12-27T20:53:03.462Z,1.33
2022-12-27T20:56:11.097Z,1.30
2022-12-27T20:59:16.141Z,0.90
2022-12-27T21:02:23.544Z,1.10
2022-12-27T21:05:30.256Z,1.07
2022-12-27T21:08:40.345Z,0.80
2022-12-27T21:11:47.721Z,0.90
2022-12-27T21:14:53.968Z,0.80
2022-12-27T21:17:59.172Z,0.80
2022-12-27T21:21:07.788Z,0.90
2022-12-27T21:24:14.416Z,0.90
2022-12-27T21:27:20.766Z,0.87
2022-12-27T21:30:26.118Z,0.93
2022-12-27T21:33:31.833Z,0.80
2022-12-27T21:36:39.054Z,1.10
2022-12-27T21:39:44.260Z,0.90
2022-12-27T21:42:50.437Z,0.70
2022-12-27T21:45:55.681Z,1.00
2022-12-27T21:49:02.264Z,1.10
2022-12-27T21:52:09.022Z,0.90
2022-12-27T21:55:14.843Z,0.80
2022-12-27T21:58:19.983Z,1.10
2022-12-27T22:01:28.728Z,1.00
2022-12-27T22:04:34.018Z,1.00
2022-12-27T22:07:40.894Z,1.00
2022-12-27T22:10:46.099Z,0.80
2022-12-27T22:13:51.220Z,0.80
2022-12-27T22:16:56.346Z,0.80
2022-12-27T22:20:01.654Z,1.00
2022-12-27T22:23:08.171Z,0.80
2022-12-27T22:26:14.954Z,1.00
2022-12-27T22:29:21.775Z,0.80
2022-12-27T22:32:26.985Z,1.00
2022-12-27T22:35:32.603Z,0.90
2022-12-27T22:38:40.643Z,1.10
2022-12-27T22:41:46.184Z,0.73
2022-12-27T22:44:51.378Z,0.80
2022-12-27T22:47:56.658Z,0.77
2022-12-27T22:51:06.754Z,1.00
2022-12-27T22:54:13.308Z,1.00
2022-12-27T22:57:18.501Z,0.80
2022-12-27T23:00:23.742Z,0.83
2022-12-27T23:03:28.895Z,0.90
2022-12-27T23:06:35.743Z,0.80
2022-12-27T23:09:43.574Z,0.73
2022-12-27T23:12:49.051Z,0.80
2022-12-27T23:15:58.730Z,0.93
2022-12-27T23:19:03.960Z,1.00
2022-12-27T23:22:09.667Z,1.00
2022-12-27T23:25:17.446Z,1.10
2022-12-27T23:28:22.751Z,0.93
2022-12-27T23:31:29.472Z,0.80
2022-12-27T23:34:34.737Z,0.90
2022-12-27T23:37:39.911Z,1.00
2022-12-27T23:40:46.465Z,1.00
2022-12-27T23:43:54.969Z,0.80
2022-12-27T23:47:00.834Z,0.83
2022-12-27T23:50:06.955Z,1.10
2022-12-27T23:53:12.913Z,0.97
2022-12-27T23:56:21.152Z,1.10
2022-12-27T23:59:26.351Z,0.90
